NC18 weather

Rat Landing Seaplane Base
Ahoskie, North Carolina, United States

Public forecast

Using degrees Fahrenheit for public forecast. Weather courtesy of forecast.io.

METAR (pilot weather report)

Closest report is Tri County Airport, 13.7 nm (25.4 km) WSW. Retrieved 2019/04/24 17:40 UTC (11 minutes ago):

KASJ 241740Z AUTO 25005KT 10SM CLR 28/14 A2987 RMK AO2 T02820143

TAF (pilot weather forecast)

Closest forecast is Elizabeth City Regional Airport & Coast Guard Air Station, 36.5 nm (67.5 km) ESE. Retrieved 2019/04/24 12:24 UTC (5 hours ago):

TAF TAF KECG 241120Z 2412/2512 22010KT P6SM SCT150 BKN250 FM241800 26007KT P6SM BKN150 FM242000 16007KT P6SM SCT050 BKN100 FM250000 10006KT P6SM BKN250